Haifa, Israel

04:48 PM IDT on septembrie 19, 2014 (GMT +0300)
Haifa | Change Station
CLOSE
Current Station
Staţie meteo personală
Location: Haifa, -
Elevation: 676 ft
Nearby Weather Stations

Elev 676 ft 32.81 °N, 34.99 °E | Updated 3 seconds ago

Scattered Clouds
Nori risipiţi
79.0 °F
Feels Like 82 °F
N
5.0
Vânt variabil Vânt from NNE
Gusts 11.0 mph

astăzi
High -- | Low -- °F
--% Chance of Precip.
Ieri
High -- | Low -- °F
Precip. -- inch
6:25 AM 6:41 PM
Semilună în descreştere, 19% visible
Presiunea 29.92 inch
Vizibilitatea 6.2 mile
Nori Nori risipiţi 3000 ft
Indicele de căldură 82 °F
Punctul de rouă 69 °F
Umiditatea 72%
Precipitaţii 0.00 inch
Adâncimea zăpezii Not available.
UV 0.7 out of 12
Pollen Not available.
Calitatea aerului Not available.
Flu Activity Not available.
METAR LLHA 191250Z 30007KT 260V340 9999 SCT030 29/18 Q1013

More Conditions Fewer Conditions

Presiunea 29.92 inch
Vizibilitatea 6.2 mile
Nori Nori risipiţi 3000 ft
Indicele de căldură 82 °F
Punctul de rouă 69 °F
Umiditatea 72%
Precipitaţii 0.00 inch
Adâncimea zăpezii Not available.
UV 0.7 out of 12
Pollen Not available.
Calitatea aerului Not available.
Flu Activity Not available.
METAR LLHA 191250Z 30007KT 260V340 9999 SCT030 29/18 Q1013

More Conditions Fewer Conditions

10-Day Weather Forecast

Almanac

Astronomie

Sep. 19, 2014 Răsărit Apus
Timpul Actual 6:25 AM IDT 6:41 PM IDT
Crepusculul Civil 6:01 AM IDT 7:05 PM IDT
Crepusculul nautic 5:32 AM IDT 7:34 PM IDT
Răsărit Astronomic 5:03 AM IDT 8:03 PM IDT
Luna 2:04 AM IDT 3:46 PM IDT
Durata zilei lumină 13h 04m
Lungimea zilei
12h 15m
Tomorrow will be 1m 59s shorter.
Semilună în descreştere, 19% of the Moon is Illuminated
astăzi
Semilună în descreştere
Sep 24
New
Oct 1
Primul pătrar
Oct 8
Lună plină
Oct 15
Ultimul pătrar

Yesterday's Extremes

Country Highs Country Lows

Community

WunderPhotos

Upload Photos

1,754,608 photos uploaded!

WunderBlogs® & News

Nearby

Calitatea aerului

Not available.

Adâncimea zapezii

Not available.

Earthquake Activity

Oraş Distance Mag. Time & Date
No recent earthquake activity has been reported nearby.
Minimum magnitude displayed is 2.5.

Coastal Water Temperatures

Locul Temperatura
No Stations Reporting

Nearby Weather Stations